Time;durP1;ratioP1;P1;durP2;ratioP2;P2;SDS_P1;SDS_P2;PMS_P1;PMS_P2;Temp;Humidity;BMP_temperature;BMP_pressure;BME280_temperature;BME280_humidity;BME280_pressure;Samples;Min_cycle;Max_cycle;Signal;HPM_P1;HPM_P2
2023/03/16 00:01:10;;;;;;;30.15;20.38;;;1.00;48.40;;;;;;7369942;19;20081;-69
2023/03/16 00:03:40;;;;;;;31.35;21.27;;;1.00;48.20;;;;;;7370207;19;20015;-70
2023/03/16 00:06:10;;;;;;;33.03;22.98;;;0.90;48.10;;;;;;7369557;19;20035;-69
2023/03/16 00:08:42;;;;;;;32.72;22.25;;;0.90;48.10;;;;;;7377745;19;20010;-70
2023/03/16 00:11:14;;;;;;;36.60;23.00;;;0.90;48.60;;;;;;7391144;19;20364;-70
2023/03/16 00:13:44;;;;;;;33.15;22.38;;;0.90;48.70;;;;;;7370211;19;20030;-70
2023/03/16 00:16:15;;;;;;;34.15;21.48;;;0.90;48.40;;;;;;7368809;19;20009;-69
2023/03/16 00:18:45;;;;;;;33.75;22.35;;;0.80;48.40;;;;;;7369666;19;20018;-68
2023/03/16 00:21:16;;;;;;;34.25;23.10;;;0.80;48.60;;;;;;7370624;19;20475;-68
2023/03/16 00:23:46;;;;;;;34.35;21.92;;;0.80;48.70;;;;;;7369271;19;20110;-68
2023/03/16 00:26:18;;;;;;;32.20;22.38;;;0.90;49.50;;;;;;7386370;19;20007;-69
2023/03/16 00:28:48;;;;;;;35.90;22.83;;;0.90;49.50;;;;;;7368977;19;20021;-70
2023/03/16 00:31:18;;;;;;;33.70;22.70;;;0.90;49.50;;;;;;7366730;19;20392;-69
2023/03/16 00:33:48;;;;;;;35.08;22.63;;;0.90;49.40;;;;;;7368661;19;20015;-70
2023/03/16 00:36:18;;;;;;;34.70;23.30;;;0.90;49.50;;;;;;7366800;19;20017;-69
2023/03/16 00:38:48;;;;;;;39.45;23.92;;;0.90;49.40;;;;;;7368353;19;20014;-69
2023/03/16 00:41:21;;;;;;;34.30;23.35;;;0.90;49.70;;;;;;7391290;19;20013;-69
2023/03/16 00:43:52;;;;;;;36.78;24.00;;;0.90;49.50;;;;;;7368790;19;20042;-69
2023/03/16 00:46:25;;;;;;;39.55;23.83;;;0.70;47.60;;;;;;7365955;19;20011;-69
2023/03/16 00:48:55;;;;;;;36.28;23.05;;;0.60;48.10;;;;;;7369100;19;20011;-69
2023/03/16 00:51:24;;;;;;;33.28;22.48;;;0.60;48.90;;;;;;7367775;19;20028;-69
2023/03/16 00:53:54;;;;;;;34.42;22.65;;;0.40;48.10;;;;;;7367658;19;20474;-69
2023/03/16 00:56:27;;;;;;;36.42;23.02;;;0.40;48.40;;;;;;7388178;19;20006;-69
2023/03/16 00:58:57;;;;;;;36.92;22.13;;;0.50;48.90;;;;;;7368557;19;20395;-69
2023/03/16 01:01:27;;;;;;;31.52;21.13;;;0.40;48.70;;;;;;7366799;19;20541;-69
2023/03/16 01:03:58;;;;;;;34.67;21.88;;;0.50;49.20;;;;;;7368458;19;20077;-69
2023/03/16 01:06:28;;;;;;;37.05;23.48;;;0.50;49.20;;;;;;7366930;19;20011;-69
2023/03/16 01:08:58;;;;;;;38.25;23.35;;;0.50;49.40;;;;;;7368078;19;20014;-70
2023/03/16 01:11:32;;;;;;;35.08;23.27;;;0.50;49.40;;;;;;7389324;19;20016;-68
2023/03/16 01:14:02;;;;;;;35.92;23.02;;;0.50;49.20;;;;;;7368020;19;20013;-69
2023/03/16 01:16:32;;;;;;;36.17;24.48;;;0.50;49.40;;;;;;7365389;19;20019;-69
2023/03/16 01:19:03;;;;;;;36.45;23.23;;;0.50;49.70;;;;;;7367526;19;20018;-69
2023/03/16 01:21:33;;;;;;;35.72;23.50;;;0.60;50.20;;;;;;7367895;19;20006;-68
2023/03/16 01:24:03;;;;;;;40.00;25.33;;;0.60;50.10;;;;;;7366666;19;20011;-69
2023/03/16 01:26:35;;;;;;;37.50;23.17;;;0.60;50.30;;;;;;7388861;19;20018;-68
2023/03/16 01:29:05;;;;;;;39.75;25.13;;;0.60;50.20;;;;;;7367492;19;20525;-69
2023/03/16 01:31:35;;;;;;;39.45;23.90;;;0.60;50.30;;;;;;7365992;19;20082;-69
2023/03/16 01:34:05;;;;;;;37.85;24.92;;;0.60;50.30;;;;;;7367840;19;20018;-69
2023/03/16 01:36:34;;;;;;;38.20;24.95;;;0.60;50.50;;;;;;7366525;19;20026;-69
2023/03/16 01:39:05;;;;;;;36.13;23.85;;;0.70;50.50;;;;;;7367855;19;20093;-69
2023/03/16 01:41:38;;;;;;;40.55;25.35;;;0.70;50.60;;;;;;7387427;19;20018;-69
2023/03/16 01:44:08;;;;;;;39.45;25.15;;;0.60;50.40;;;;;;7366671;19;20010;-69
2023/03/16 01:46:40;;;;;;;40.42;23.88;;;0.50;50.00;;;;;;7364372;19;20010;-69
2023/03/16 01:49:13;;;;;;;41.35;25.00;;;0.60;50.30;;;;;;7367258;19;20566;-69
2023/03/16 01:51:46;;;;;;;43.80;25.48;;;0.60;50.50;;;;;;7366841;19;20346;-70
2023/03/16 01:54:25;;;;;;;37.95;24.20;;;0.60;50.60;;;;;;7365784;19;20010;-69
2023/03/16 01:57:03;;;;;;;40.05;25.10;;;0.70;50.70;;;;;;7366435;19;20042;-69
2023/03/16 01:59:36;;;;;;;37.67;22.85;;;0.60;50.40;;;;;;7386867;19;20018;-69
2023/03/16 02:02:07;;;;;;;34.10;21.95;;;0.60;50.30;;;;;;7367096;19;20007;-69
2023/03/16 02:04:43;;;;;;;39.58;24.02;;;0.50;49.80;;;;;;7365616;19;20459;-70
2023/03/16 02:07:16;;;;;;;40.88;25.00;;;0.50;50.00;;;;;;7366292;19;20362;-69
2023/03/16 02:09:50;;;;;;;37.60;23.25;;;0.50;50.00;;;;;;7366092;19;20042;-69
2023/03/16 02:12:23;;;;;;;42.22;23.73;;;0.40;49.80;;;;;;7366097;19;20089;-69
2023/03/16 02:14:54;;;;;;;39.90;23.25;;;0.40;49.80;;;;;;7364992;19;20694;-69
2023/03/16 02:17:26;;;;;;;34.50;22.98;;;0.40;49.80;;;;;;7387586;19;20044;-70
2023/03/16 02:20:09;;;;;;;38.42;23.77;;;0.30;49.50;;;;;;7365085;19;20019;-69
2023/03/16 02:22:44;;;;;;;38.53;22.75;;;0.30;49.50;;;;;;7365879;19;20014;-69
2023/03/16 02:25:15;;;;;;;;;;;0.30;50.30;;;;;;7365808;19;20089;-69
2023/03/16 02:27:54;;;;;;;37.95;22.50;;;0.30;49.50;;;;;;7367236;19;19914;-70
2023/03/16 02:30:27;;;;;;;40.63;24.15;;;0.30;49.40;;;;;;7365168;19;20051;-69
2023/03/16 02:32:58;;;;;;;42.78;24.42;;;0.20;49.40;;;;;;7366626;19;20021;-70
2023/03/16 02:35:28;;;;;;;39.10;25.20;;;0.20;49.50;;;;;;7392725;19;20074;-69
2023/03/16 02:37:58;;;;;;;38.80;24.83;;;0.20;49.50;;;;;;7373281;19;20006;-69
2023/03/16 02:40:30;;;;;;;43.72;25.15;;;0.20;49.40;;;;;;7372527;19;20018;-69
2023/03/16 02:43:03;;;;;;;41.42;25.45;;;0.10;49.40;;;;;;7373375;19;20367;-69
2023/03/16 02:45:41;;;;;;;42.00;26.25;;;0.20;49.80;;;;;;7369921;19;20466;-69
2023/03/16 02:48:15;;;;;;;44.10;25.85;;;0.20;49.80;;;;;;7373730;19;20088;-69
2023/03/16 02:50:48;;;;;;;41.15;24.52;;;0.20;50.10;;;;;;7371408;19;20015;-69
2023/03/16 02:53:18;;;;;;;43.22;25.80;;;0.20;49.90;;;;;;7394911;19;20020;-69
2023/03/16 02:55:48;;;;;;;42.70;27.10;;;0.30;50.20;;;;;;7370374;19;20014;-69
2023/03/16 02:58:19;;;;;;;41.78;25.92;;;0.30;50.10;;;;;;7373402;19;20063;-69
2023/03/16 03:00:52;;;;;;;41.35;25.77;;;0.20;49.80;;;;;;7370731;19;20034;-70
2023/03/16 03:03:21;;;;;;;43.47;24.67;;;0.20;49.80;;;;;;7370500;19;20014;-68
2023/03/16 03:05:51;;;;;;;42.45;25.35;;;0.20;49.90;;;;;;7371007;19;20019;-68
2023/03/16 03:08:22;;;;;;;40.95;25.05;;;0.20;49.80;;;;;;7394021;19;20368;-69
2023/03/16 03:10:52;;;;;;;43.85;25.23;;;0.20;49.80;;;;;;7371963;19;20017;-69
2023/03/16 03:13:22;;;;;;;41.78;25.77;;;0.30;49.60;;;;;;7370398;19;20367;-69
2023/03/16 03:15:55;;;;;;;39.67;24.67;;;0.20;49.10;;;;;;7369549;19;20027;-68
2023/03/16 03:18:25;;;;;;;37.50;24.25;;;0.10;49.10;;;;;;7372118;19;20015;-68
2023/03/16 03:20:55;;;;;;;39.95;24.63;;;0.20;49.20;;;;;;7369021;19;20053;-69
2023/03/16 03:23:25;;;;;;;38.45;24.40;;;0.10;48.90;;;;;;7393327;19;20658;-68
2023/03/16 03:25:59;;;;;;;38.92;24.42;;;0.10;49.20;;;;;;7369543;19;20021;-69
2023/03/16 03:28:29;;;;;;;42.22;23.95;;;0.10;48.90;;;;;;7371498;19;20006;-69
2023/03/16 03:31:02;;;;;;;41.70;25.05;;;0.10;49.10;;;;;;7371190;19;20015;-69
2023/03/16 03:33:32;;;;;;;38.43;23.37;;;0.10;49.10;;;;;;7371776;19;20014;-69
2023/03/16 03:36:02;;;;;;;39.83;24.35;;;0.00;48.70;;;;;;7368789;19;20034;-69
2023/03/16 03:38:32;;;;;;;45.47;24.85;;;0.10;49.10;;;;;;7392357;19;20027;-70
2023/03/16 03:41:02;;;;;;;44.05;25.52;;;0.10;49.20;;;;;;7371515;19;20014;-69
2023/03/16 03:43:32;;;;;;;41.83;24.63;;;0.10;49.40;;;;;;7369600;19;20014;-69
2023/03/16 03:46:06;;;;;;;42.13;24.48;;;0.10;49.20;;;;;;7366544;19;20014;-69
2023/03/16 03:48:37;;;;;;;38.95;21.98;;;0.00;48.80;;;;;;7369960;19;20393;-69
2023/03/16 03:51:07;;;;;;;40.58;23.38;;;0.10;49.30;;;;;;7371275;19;20026;-69
2023/03/16 03:53:37;;;;;;;40.30;23.25;;;0.10;49.40;;;;;;7392442;19;20010;-69
2023/03/16 03:56:08;;;;;;;38.63;22.45;;;0.10;49.10;;;;;;7368538;19;20535;-70
2023/03/16 03:58:38;;;;;;;40.20;22.45;;;0.10;49.00;;;;;;7369913;19;20166;-69
2023/03/16 04:01:10;;;;;;;34.72;20.65;;;0.10;49.10;;;;;;7370794;19;20390;-69
2023/03/16 04:03:40;;;;;;;34.63;21.10;;;0.10;48.80;;;;;;7371111;19;20010;-69
2023/03/16 04:06:13;;;;;;;36.03;20.25;;;0.10;48.60;;;;;;7368373;19;20507;-69
2023/03/16 04:08:43;;;;;;;38.40;22.27;;;0.20;48.40;;;;;;7370722;19;20576;-69
2023/03/16 04:11:13;;;;;;;36.65;21.67;;;0.10;48.10;;;;;;7392319;19;20753;-69
2023/03/16 04:13:43;;;;;;;37.25;20.77;;;0.10;48.00;;;;;;7369056;19;20018;-69
2023/03/16 04:16:16;;;;;;;37.30;22.33;;;0.10;47.40;;;;;;7367519;19;20010;-69
2023/03/16 04:18:46;;;;;;;34.92;20.92;;;0.10;46.80;;;;;;7370382;19;20015;-69
2023/03/16 04:21:18;;;;;;;32.50;21.05;;;0.10;46.70;;;;;;7369700;19;20082;-69
2023/03/16 04:23:48;;;;;;;32.28;19.95;;;0.10;46.40;;;;;;7370206;19;20018;-70
2023/03/16 04:26:18;;;;;;;32.90;20.52;;;0.00;46.20;;;;;;7390812;19;20014;-68
2023/03/16 04:28:48;;;;;;;37.25;19.17;;;0.10;46.30;;;;;;7369567;19;20023;-68
2023/03/16 04:31:21;;;;;;;34.28;20.45;;;0.20;46.30;;;;;;7370347;19;20010;-68
2023/03/16 04:33:53;;;;;;;32.95;20.52;;;0.10;45.50;;;;;;7370211;19;20015;-68
2023/03/16 04:36:24;;;;;;;34.30;20.90;;;0.10;44.90;;;;;;7365679;19;20017;-68
2023/03/16 04:38:54;;;;;;;34.17;20.50;;;0.10;45.10;;;;;;7370597;19;20014;-68
2023/03/16 04:41:25;;;;;;;36.10;21.13;;;0.10;44.80;;;;;;7390028;19;20478;-68
2023/03/16 04:43:56;;;;;;;32.03;20.08;;;0.10;44.00;;;;;;7367473;19;20006;-68
2023/03/16 04:46:29;;;;;;;31.08;19.23;;;0.10;43.90;;;;;;7367833;19;20019;-69
2023/03/16 04:48:59;;;;;;;33.30;20.35;;;0.10;43.70;;;;;;7369103;19;20022;-69
2023/03/16 04:51:29;;;;;;;36.58;20.55;;;0.10;43.40;;;;;;7368794;19;20018;-69
2023/03/16 04:53:59;;;;;;;31.42;18.73;;;0.10;42.60;;;;;;7368185;19;20020;-69
2023/03/16 04:56:29;;;;;;;28.33;18.88;;;0.10;42.30;;;;;;7388230;19;20020;-68
2023/03/16 04:58:59;;;;;;;34.35;19.08;;;0.00;42.10;;;;;;7367190;19;20593;-69
2023/03/16 05:01:31;;;;;;;32.78;20.27;;;0.00;42.10;;;;;;7367894;19;20342;-70
2023/03/16 05:04:01;;;;;;;31.17;18.80;;;0.00;41.70;;;;;;7368105;19;20031;-70
2023/03/16 05:06:31;;;;;;;35.70;19.25;;;0.10;41.70;;;;;;7367745;19;20011;-67
2023/03/16 05:09:04;;;;;;;32.65;17.65;;;0.00;40.40;;;;;;7368267;19;20478;-68
2023/03/16 05:11:34;;;;;;;33.85;20.10;;;0.10;40.90;;;;;;7389670;19;20014;-68
2023/03/16 05:14:04;;;;;;;36.50;19.95;;;0.10;40.70;;;;;;7366485;19;20017;-68
2023/03/16 05:16:36;;;;;;;37.13;21.42;;;0.10;40.60;;;;;;7367127;19;20472;-69
2023/03/16 05:19:06;;;;;;;34.17;20.08;;;0.10;40.60;;;;;;7366933;19;20015;-69
2023/03/16 05:21:37;;;;;;;32.17;18.85;;;0.10;39.80;;;;;;7368517;19;20007;-68
2023/03/16 05:24:08;;;;;;;31.42;19.67;;;0.10;39.90;;;;;;7366851;19;20344;-69
2023/03/16 05:26:37;;;;;;;34.08;20.13;;;0.10;39.80;;;;;;7387779;19;20021;-68
2023/03/16 05:29:07;;;;;;;34.13;20.83;;;0.10;39.50;;;;;;7367561;19;20015;-69
2023/03/16 05:31:40;;;;;;;36.72;20.80;;;0.20;39.30;;;;;;7366514;19;20371;-69
2023/03/16 05:34:11;;;;;;;37.97;20.10;;;0.20;38.70;;;;;;7365971;19;21401;-69
2023/03/16 05:36:40;;;;;;;33.47;19.70;;;0.20;38.30;;;;;;7365083;19;20014;-69
2023/03/16 05:39:10;;;;;;;36.80;20.83;;;0.30;38.30;;;;;;7367767;19;20022;-69
2023/03/16 05:41:40;;;;;;;37.60;20.33;;;0.30;37.70;;;;;;7373023;19;20018;-68
2023/03/16 05:44:10;;;;;;;45.63;22.67;;;0.30;37.10;;;;;;7388862;19;20364;-69
2023/03/16 05:46:44;;;;;;;34.75;20.00;;;0.30;36.80;;;;;;7366320;19;20397;-69
2023/03/16 05:49:14;;;;;;;35.05;18.92;;;0.30;36.80;;;;;;7365411;19;20014;-68
2023/03/16 05:51:44;;;;;;;35.13;19.83;;;0.40;36.80;;;;;;7367466;19;20557;-68
2023/03/16 05:54:14;;;;;;;32.25;20.30;;;0.40;36.50;;;;;;7366490;19;20007;-68
2023/03/16 05:56:44;;;;;;;34.10;19.83;;;0.40;36.10;;;;;;7365323;19;20021;-67
2023/03/16 05:59:14;;;;;;;34.20;21.02;;;0.50;36.40;;;;;;7387449;19;20363;-68
2023/03/16 06:01:48;;;;;;;37.25;21.33;;;0.50;35.40;;;;;;7366383;19;20021;-68
2023/03/16 06:04:18;;;;;;;34.35;19.08;;;0.60;34.90;;;;;;7365234;19;20018;-69
2023/03/16 06:06:48;;;;;;;37.42;19.35;;;0.60;34.40;;;;;;7365930;19;20017;-69
2023/03/16 06:09:17;;;;;;;37.15;20.58;;;0.70;34.50;;;;;;7364615;19;20013;-69
2023/03/16 06:11:47;;;;;;;30.83;17.77;;;0.70;34.00;;;;;;7366504;19;20093;-68
2023/03/16 06:14:17;;;;;;;34.40;18.25;;;0.80;33.50;;;;;;7386563;19;20010;-68
2023/03/16 06:16:49;;;;;;;34.90;20.23;;;0.80;32.40;;;;;;7365470;19;20415;-68
2023/03/16 06:19:20;;;;;;;31.98;19.00;;;0.90;30.90;;;;;;7364069;19;20110;-69
2023/03/16 06:21:50;;;;;;;29.65;18.10;;;1.00;30.70;;;;;;7367208;19;20007;-68
2023/03/16 06:24:20;;;;;;;33.30;18.27;;;1.00;29.70;;;;;;7363205;19;20014;-69
2023/03/16 06:26:49;;;;;;;32.88;18.08;;;1.00;29.50;;;;;;7363403;19;20026;-69
2023/03/16 06:29:19;;;;;;;25.38;15.80;;;1.10;29.20;;;;;;7386205;19;20018;-69
2023/03/16 06:31:53;;;;;;;30.25;17.48;;;1.10;27.60;;;;;;7365105;19;20045;-68
2023/03/16 06:34:23;;;;;;;29.30;16.92;;;1.10;26.50;;;;;;7362562;19;20053;-68
2023/03/16 06:36:53;;;;;;;28.75;17.05;;;1.20;26.50;;;;;;7363796;19;20017;-69
2023/03/16 06:39:22;;;;;;;26.75;16.02;;;1.30;27.10;;;;;;7363299;19;20006;-69
2023/03/16 06:41:52;;;;;;;28.88;16.38;;;1.40;26.20;;;;;;7363514;19;20466;-69
2023/03/16 06:44:22;;;;;;;27.25;15.73;;;1.40;24.10;;;;;;7384266;19;20029;-69
2023/03/16 06:46:55;;;;;;;27.83;15.20;;;1.40;24.30;;;;;;7364955;19;20010;-69
2023/03/16 06:49:24;;;;;;;26.52;15.75;;;1.50;24.20;;;;;;7362477;19;20014;-69
2023/03/16 06:51:55;;;;;;;27.52;15.60;;;1.50;23.40;;;;;;7364400;19;20097;-68
2023/03/16 06:54:25;;;;;;;27.35;15.18;;;1.50;22.60;;;;;;7362315;19;20081;-68
2023/03/16 06:56:55;;;;;;;23.48;13.45;;;1.50;21.90;;;;;;7363416;19;20017;-68
2023/03/16 06:59:25;;;;;;;25.42;14.23;;;1.50;21.20;;;;;;7383735;19;20010;-68
2023/03/16 07:01:57;;;;;;;23.70;13.40;;;1.50;20.40;;;;;;7363565;19;20374;-69
2023/03/16 07:04:27;;;;;;;23.42;13.35;;;1.70;20.90;;;;;;7363516;19;20111;-69
2023/03/16 07:06:57;;;;;;;21.10;14.13;;;1.80;20.30;;;;;;7364011;19;20466;-68
2023/03/16 07:09:27;;;;;;;24.38;14.30;;;1.90;18.70;;;;;;7363795;19;20007;-68
2023/03/16 07:11:57;;;;;;;23.58;13.85;;;1.90;18.20;;;;;;7363812;19;20046;-69
2023/03/16 07:14:27;;;;;;;24.75;14.10;;;1.90;17.60;;;;;;7385292;19;20015;-69
2023/03/16 07:17:00;;;;;;;22.55;14.27;;;2.20;18.40;;;;;;7363630;19;20012;-69
2023/03/16 07:19:30;;;;;;;29.55;14.77;;;2.20;17.70;;;;;;7364320;19;20015;-68
2023/03/16 07:22:01;;;;;;;22.65;14.20;;;2.30;16.00;;;;;;7371316;19;20014;-69
2023/03/16 07:24:32;;;;;;;24.85;13.48;;;2.20;14.40;;;;;;7369045;19;20491;-69
2023/03/16 07:27:01;;;;;;;20.98;12.73;;;2.30;14.80;;;;;;7370008;19;20081;-68
2023/03/16 07:29:31;;;;;;;21.70;13.73;;;2.40;14.40;;;;;;7390670;19;20078;-68
2023/03/16 07:32:03;;;;;;;21.30;12.43;;;2.50;13.40;;;;;;7371759;19;20042;-68
2023/03/16 07:34:34;;;;;;;24.60;13.10;;;2.70;12.90;;;;;;7368329;19;20067;-68
2023/03/16 07:37:04;;;;;;;20.27;12.45;;;2.60;10.30;;;;;;7371428;19;20017;-69
2023/03/16 07:39:33;;;;;;;24.30;13.48;;;2.60;10.60;;;;;;7369229;19;20546;-69
2023/03/16 07:42:03;;;;;;;20.42;12.10;;;2.70;11.10;;;;;;7371388;19;20014;-69
2023/03/16 07:44:33;;;;;;;20.30;12.05;;;2.80;10.70;;;;;;7389885;19;20017;-71
2023/03/16 07:47:06;;;;;;;20.00;12.13;;;2.90;9.60;;;;;;7368358;19;20010;-68
2023/03/16 07:49:36;;;;;;;19.48;11.60;;;3.00;9.10;;;;;;7367656;19;20017;-69
2023/03/16 07:52:06;;;;;;;19.27;11.80;;;3.10;8.10;;;;;;7369688;19;20513;-69
2023/03/16 07:54:36;;;;;;;17.42;10.77;;;3.30;7.90;;;;;;7365287;19;20014;-69
2023/03/16 07:57:06;;;;;;;22.90;11.65;;;3.40;6.70;;;;;;7370349;19;20048;-69
2023/03/16 07:59:37;;;;;;;18.88;11.70;;;3.40;6.30;;;;;;7390146;19;20035;-70
2023/03/16 08:02:13;;;;;;;26.52;12.13;;;3.50;6.10;;;;;;7369562;19;20010;-68
2023/03/16 08:04:43;;;;;;;21.60;12.00;;;3.60;5.70;;;;;;7366391;19;20010;-68
2023/03/16 08:07:15;;;;;;;18.65;11.45;;;3.80;5.20;;;;;;7370410;19;20014;-69
2023/03/16 08:09:45;;;;;;;36.90;21.15;;;3.90;4.60;;;;;;7368819;19;20490;-68
2023/03/16 08:12:15;;;;;;;20.58;10.77;;;4.00;4.70;;;;;;7371745;19;20016;-70
2023/03/16 08:14:45;;;;;;;16.35;10.65;;;4.10;1.00;;;;;;7366857;19;20018;-68
2023/03/16 08:17:17;;;;;;;14.30;9.68;;;4.00;1.00;;;;;;7391325;19;20018;-67
2023/03/16 08:19:47;;;;;;;13.85;9.70;;;4.20;1.70;;;;;;7367677;19;20038;-69
2023/03/16 08:22:17;;;;;;;15.93;10.13;;;4.30;1.20;;;;;;7370524;19;20006;-70
2023/03/16 08:24:47;;;;;;;15.68;9.30;;;4.30;1.00;;;;;;7367557;19;20030;-69
2023/03/16 08:27:18;;;;;;;22.40;10.25;;;4.50;1.00;;;;;;7369327;19;20010;-68
2023/03/16 08:29:48;;;;;;;16.38;10.38;;;4.60;1.00;;;;;;7367837;19;20115;-69
2023/03/16 08:32:20;;;;;;;16.35;9.82;;;4.70;1.00;;;;;;7389887;19;20021;-69
2023/03/16 08:34:51;;;;;;;14.60;9.52;;;4.70;1.00;;;;;;7367245;19;20017;-69
2023/03/16 08:37:21;;;;;;;16.90;9.65;;;4.80;1.00;;;;;;7369333;19;20295;-70
2023/03/16 08:39:51;;;;;;;13.00;9.02;;;5.00;1.00;;;;;;7367606;19;20549;-69
2023/03/16 08:42:22;;;;;;;13.85;8.93;;;5.00;1.00;;;;;;7369846;19;20082;-68
2023/03/16 08:44:54;;;;;;;14.45;9.52;;;5.00;1.00;;;;;;7367461;19;20077;-68
2023/03/16 08:47:26;;;;;;;18.83;9.88;;;5.30;1.00;;;;;;7390956;19;20035;-69
2023/03/16 08:49:56;;;;;;;16.40;9.45;;;5.40;1.00;;;;;;7367525;19;20494;-69
2023/03/16 08:52:26;;;;;;;13.77;8.40;;;5.20;1.00;;;;;;7369033;19;20114;-69
2023/03/16 08:54:55;;;;;;;13.63;8.73;;;5.30;1.00;;;;;;7366016;19;20015;-70
2023/03/16 08:57:33;;;;;;;14.13;8.35;;;5.30;1.00;;;;;;7369762;19;20009;-69
2023/03/16 09:00:10;;;;;;;14.15;9.00;;;5.60;1.00;;;;;;7366256;19;20589;-70
2023/03/16 09:02:44;;;;;;;13.48;8.73;;;5.70;1.00;;;;;;7369384;19;20031;-69
2023/03/16 09:05:17;;;;;;;13.88;8.43;;;5.70;1.00;;;;;;7388052;19;20010;-70
2023/03/16 09:07:47;;;;;;;13.63;8.93;;;5.70;1.00;;;;;;7368841;19;20007;-68
2023/03/16 09:10:18;;;;;;;14.13;8.50;;;6.00;1.00;;;;;;7367902;19;20022;-70
2023/03/16 09:12:48;;;;;;;15.48;9.55;;;6.10;1.00;;;;;;7369517;19;20089;-68
2023/03/16 09:15:18;;;;;;;13.73;9.00;;;6.10;1.00;;;;;;7365672;19;20094;-69
2023/03/16 09:17:52;;;;;;;13.55;9.27;;;6.30;1.00;;;;;;7366926;19;20019;-69
2023/03/16 09:20:22;;;;;;;16.90;8.53;;;6.30;1.00;;;;;;7385970;19;20332;-69
2023/03/16 09:22:58;;;;;;;15.98;9.00;;;6.50;1.00;;;;;;7368922;19;20013;-69
2023/03/16 09:25:28;;;;;;;15.80;7.95;;;6.70;1.00;;;;;;7365055;19;20042;-69
2023/03/16 09:27:59;;;;;;;13.50;8.27;;;6.90;1.00;;;;;;7367836;19;20015;-69
2023/03/16 09:30:29;;;;;;;12.55;8.48;;;6.80;1.00;;;;;;7366918;19;20010;-69
2023/03/16 09:33:02;;;;;;;11.77;7.60;;;7.00;1.00;;;;;;7369149;19;20032;-70
2023/03/16 09:35:33;;;;;;;16.27;8.82;;;6.80;1.00;;;;;;7388817;19;20010;-69
2023/03/16 09:38:06;;;;;;;13.85;8.70;;;7.20;1.00;;;;;;7367825;19;20507;-69
2023/03/16 09:40:38;;;;;;;12.10;8.27;;;7.20;1.00;;;;;;7365096;19;20018;-70
2023/03/16 09:43:23;;;;;;;16.23;7.90;;;7.10;1.00;;;;;;7366360;19;20092;-71
2023/03/16 09:46:02;;;;;;;14.38;8.15;;;7.50;1.00;;;;;;7366021;19;20010;-70
2023/03/16 09:48:39;;;;;;;11.57;7.13;;;7.80;1.00;;;;;;7366407;19;20010;-69
2023/03/16 09:51:19;;;;;;;17.23;8.13;;;8.10;1.00;;;;;;7367026;19;20015;-69
2023/03/16 09:53:55;;;;;;;13.05;7.38;;;7.60;1.00;;;;;;7366101;19;20478;-69
2023/03/16 09:56:31;;;;;;;12.85;7.93;;;7.60;1.00;;;;;;7388418;19;20017;-68
2023/03/16 09:59:01;;;;;;;16.55;10.68;;;7.60;1.00;;;;;;7368339;19;20137;-69
2023/03/16 10:01:41;;;;;;;18.38;7.88;;;7.90;1.00;;;;;;7368532;19;20350;-67
2023/03/16 10:04:23;;;;;;;14.75;7.97;;;8.10;1.00;;;;;;7366534;19;20010;-69
2023/03/16 10:07:02;;;;;;;9.82;6.10;;;8.30;1.00;;;;;;7367336;19;20024;-69
2023/03/16 10:09:38;;;;;;;13.38;6.10;;;8.50;1.00;;;;;;7375055;19;20010;-69
2023/03/16 10:12:10;;;;;;;10.90;7.07;;;8.30;1.00;;;;;;7397290;19;20010;-68
2023/03/16 10:14:46;;;;;;;11.85;6.88;;;8.40;1.00;;;;;;7408299;19;20067;-68
2023/03/16 10:17:19;;;;;;;13.73;7.68;;;8.00;1.00;;;;;;7397868;19;20015;-69
2023/03/16 10:19:56;;;;;;;12.20;7.20;;;8.10;1.00;;;;;;7363735;19;20375;-69
2023/03/16 10:22:29;;;;;;;8.00;6.18;;;8.00;1.00;;;;;;7366368;19;20425;-69
2023/03/16 10:25:08;;;;;;;12.15;7.10;;;8.50;1.00;;;;;;7365031;19;20015;-69
2023/03/16 10:27:40;;;;;;;11.85;6.53;;;8.60;1.00;;;;;;7366056;19;20014;-68
2023/03/16 10:30:26;;;;;;;12.15;6.50;;;8.70;1.00;;;;;;7363498;19;20577;-69
2023/03/16 10:32:58;;;;;;;13.80;7.90;;;9.10;1.00;;;;;;7366975;19;20025;-67
2023/03/16 10:35:42;;;;;;;9.18;6.05;;;9.20;1.00;;;;;;7387763;19;20010;-70
2023/03/16 10:38:29;;;;;;;9.32;6.07;;;8.90;1.00;;;;;;7365014;19;20089;-72
2023/03/16 10:40:59;;;;;;;8.13;5.75;;;8.70;1.00;;;;;;7363369;19;20466;-70
2023/03/16 10:43:31;;;;;;;9.50;6.03;;;9.10;1.00;;;;;;7362879;19;20085;-69
2023/03/16 10:46:03;;;;;;;8.73;5.70;;;9.50;1.00;;;;;;7366124;19;20046;-70
2023/03/16 10:48:34;;;;;;;8.40;4.88;;;9.80;1.00;;;;;;7365072;19;20587;-68
2023/03/16 10:51:12;;;;;;;8.25;5.50;;;10.00;1.00;;;;;;7366239;19;20013;-70
2023/03/16 10:53:44;;;;;;;7.40;4.93;;;9.90;1.00;;;;;;7363187;19;20010;-69
2023/03/16 10:56:21;;;;;;;9.85;5.18;;;9.80;1.00;;;;;;7395350;19;20038;-69
2023/03/16 10:58:51;;;;;;;9.73;5.07;;;9.70;1.00;;;;;;7371442;19;20040;-68
2023/03/16 11:01:25;;;;;;;9.75;5.28;;;9.80;1.00;;;;;;7370548;19;20414;-68
2023/03/16 11:03:56;;;;;;;8.05;5.10;;;9.70;1.00;;;;;;7369934;19;20014;-69
2023/03/16 11:06:32;;;;;;;8.25;5.20;;;10.00;1.00;;;;;;7371426;19;20513;-68
2023/03/16 11:09:07;;;;;;;7.05;4.57;;;9.50;1.00;;;;;;7369786;19;20312;-69
2023/03/16 11:11:38;;;;;;;7.57;4.70;;;9.50;1.00;;;;;;7393968;19;20038;-69
2023/03/16 11:14:15;;;;;;;7.85;4.50;;;9.30;1.00;;;;;;7371146;19;20014;-69
2023/03/16 11:16:51;;;;;;;6.00;4.65;;;9.70;1.00;;;;;;7371390;19;20026;-69
2023/03/16 11:19:26;;;;;;;6.40;4.45;;;9.70;1.00;;;;;;7369648;19;20014;-68
2023/03/16 11:22:03;;;;;;;7.78;4.43;;;9.50;1.00;;;;;;7371038;19;20034;-69
2023/03/16 11:24:44;;;;;;;7.03;4.32;;;9.70;1.00;;;;;;7370656;19;20376;-69
2023/03/16 11:27:20;;;;;;;6.18;4.57;;;10.40;1.00;;;;;;7372125;19;20070;-69
2023/03/16 11:30:00;;;;;;;6.22;3.90;;;10.40;1.00;;;;;;7368977;19;20031;-68
2023/03/16 11:32:35;;;;;;;11.10;4.53;;;10.20;1.00;;;;;;7392446;19;20451;-69
2023/03/16 11:35:13;;;;;;;7.80;4.20;;;10.30;1.00;;;;;;7370441;19;20033;-70
2023/03/16 11:37:58;;;;;;;8.77;4.65;;;10.20;1.00;;;;;;7370811;19;20564;-70
2023/03/16 11:40:40;;;;;;;6.03;4.13;;;10.50;1.00;;;;;;7368607;19;20024;-69
2023/03/16 11:43:41;;;;;;;6.32;4.28;;;10.40;1.00;;;;;;7371487;19;20014;-68
2023/03/16 11:46:19;;;;;;;7.75;3.65;;;10.30;1.00;;;;;;7369459;19;20010;-69
2023/03/16 11:48:58;;;;;;;4.85;3.45;;;10.50;1.00;;;;;;7370513;19;20386;-69
2023/03/16 11:51:40;;;;;;;7.68;3.60;;;10.80;1.00;;;;;;7368815;19;20018;-70
2023/03/16 11:54:29;;;;;;;6.43;3.70;;;10.60;1.00;;;;;;7368135;19;20038;-70
2023/03/16 11:57:02;;;;;;;5.35;4.35;;;10.20;1.00;;;;;;7370752;19;21461;-68
2023/03/16 11:59:58;;;;;;;6.13;3.80;;;10.10;1.00;;;;;;7389766;19;20011;-69
2023/03/16 12:02:40;;;;;;;6.68;3.70;;;10.40;1.00;;;;;;7368827;19;20034;-68
2023/03/16 12:05:32;;;;;;;5.32;3.55;;;10.80;1.00;;;;;;7364408;19;20010;-69
2023/03/16 12:08:13;;;;;;;5.25;3.90;;;10.90;1.00;;;;;;7365270;19;20713;-69
2023/03/16 12:10:53;;;;;;;4.90;3.85;;;10.50;1.00;;;;;;7366852;19;20021;-68
2023/03/16 12:13:36;;;;;;;5.13;3.60;;;10.40;1.00;;;;;;7366809;19;20021;-69
2023/03/16 12:16:11;;;;;;;5.35;3.65;;;10.90;1.00;;;;;;7366146;19;20007;-69
2023/03/16 12:18:47;;;;;;;5.35;3.58;;;10.70;1.00;;;;;;7367391;19;20613;-68
2023/03/16 12:21:21;;;;;;;5.82;3.53;;;10.90;1.00;;;;;;7364873;19;20018;-69
2023/03/16 12:23:54;;;;;;;4.82;3.25;;;10.50;1.00;;;;;;7366809;19;20041;-70
2023/03/16 12:26:30;;;;;;;5.45;3.20;;;11.10;1.00;;;;;;7388420;19;20028;-68
2023/03/16 12:29:04;;;;;;;4.72;3.17;;;10.90;1.00;;;;;;7365171;19;20798;-70
2023/03/16 12:31:42;;;;;;;5.43;3.72;;;10.90;1.00;;;;;;7365918;19;20010;-69
2023/03/16 12:34:24;;;;;;;5.80;3.60;;;11.00;1.00;;;;;;7363956;19;20344;-69
2023/03/16 12:37:15;;;;;;;7.32;3.28;;;11.10;1.00;;;;;;7365222;19;20010;-70
2023/03/16 12:40:11;;;;;;;4.10;3.28;;;11.00;1.00;;;;;;7364485;19;20006;-69
2023/03/16 12:42:55;;;;;;;8.88;3.47;;;11.00;1.00;;;;;;7362856;19;20026;-69
2023/03/16 12:45:34;;;;;;;5.20;3.00;;;11.20;1.00;;;;;;7362449;19;20049;-69
2023/03/16 12:48:16;;;;;;;5.63;2.97;;;11.20;1.00;;;;;;7365104;19;20057;-69
2023/03/16 12:50:54;;;;;;;4.53;3.08;;;11.70;1.00;;;;;;7363146;19;20015;-70
2023/03/16 12:53:30;;;;;;;4.40;3.00;;;11.10;1.00;;;;;;7383119;19;20085;-70
2023/03/16 12:56:07;;;;;;;3.55;2.72;;;11.40;1.00;;;;;;7361734;19;20014;-69
2023/03/16 12:58:44;;;;;;;5.45;3.53;;;11.50;1.00;;;;;;7364215;19;20013;-69
2023/03/16 13:01:15;;;;;;;6.50;2.92;;;11.60;1.00;;;;;;7361633;19;20006;-69
2023/03/16 13:03:48;;;;;;;4.95;2.90;;;12.00;1.00;;;;;;7361075;19;20399;-69
2023/03/16 13:06:23;;;;;;;4.18;2.95;;;11.80;1.00;;;;;;7363248;19;20017;-69
2023/03/16 13:08:58;;;;;;;4.63;2.78;;;11.80;1.00;;;;;;7362322;19;20020;-69
2023/03/16 13:11:29;;;;;;;4.40;2.35;;;11.50;1.00;;;;;;7384322;19;20011;-69
2023/03/16 13:14:12;;;;;;;3.28;2.63;;;11.90;1.00;;;;;;7361448;19;20038;-69